sensor_id;sensor_type;location;lat;lon;timestamp;pressure;altitude;pressure_sealevel;temperature;humidity
6150;BME280;3106;42.670;23.318;2023-01-31T00:00:24;93862.13;;;-0.02;87.71
6150;BME280;3106;42.670;23.318;2023-01-31T00:02:51;93868.78;;;-0.04;88.39
6150;BME280;3106;42.670;23.318;2023-01-31T00:05:18;93940.16;;;0.29;89.21
6150;BME280;3106;42.670;23.318;2023-01-31T00:07:45;93911.69;;;0.04;89.63
6150;BME280;3106;42.670;23.318;2023-01-31T00:10:14;93946.88;;;0.35;89.87
6150;BME280;3106;42.670;23.318;2023-01-31T00:12:41;93923.91;;;0.27;89.78
6150;BME280;3106;42.670;23.318;2023-01-31T00:15:08;93938.88;;;0.27;89.41
6150;BME280;3106;42.670;23.318;2023-01-31T00:17:37;93885.31;;;0.09;88.73
6150;BME280;3106;42.670;23.318;2023-01-31T00:20:05;93918.44;;;0.37;88.59
6150;BME280;3106;42.670;23.318;2023-01-31T00:22:32;93885.72;;;0.16;88.21
6150;BME280;3106;42.670;23.318;2023-01-31T00:24:59;93924.41;;;0.43;87.77
6150;BME280;3106;42.670;23.318;2023-01-31T00:27:27;93906.47;;;0.31;88.18
6150;BME280;3106;42.670;23.318;2023-01-31T00:29:54;93896.41;;;0.06;89.24
6150;BME280;3106;42.670;23.318;2023-01-31T00:32:21;93919.31;;;0.19;89.81
6150;BME280;3106;42.670;23.318;2023-01-31T00:34:51;93914.94;;;0.15;90.02
6150;BME280;3106;42.670;23.318;2023-01-31T00:37:17;93929.31;;;0.17;90.36
6150;BME280;3106;42.670;23.318;2023-01-31T00:39:44;93930.09;;;0.04;91.32
6150;BME280;3106;42.670;23.318;2023-01-31T00:42:11;93870.75;;;-0.28;90.88
6150;BME280;3106;42.670;23.318;2023-01-31T00:44:40;93908.03;;;-0.13;90.68
6150;BME280;3106;42.670;23.318;2023-01-31T00:47:07;93913.53;;;-0.09;91.05
6150;BME280;3106;42.670;23.318;2023-01-31T00:49:33;93930.66;;;0.01;91.13
6150;BME280;3106;42.670;23.318;2023-01-31T00:52:00;93917.03;;;-0.01;91.12
6150;BME280;3106;42.670;23.318;2023-01-31T00:54:27;93928.94;;;0.24;90.88
6150;BME280;3106;42.670;23.318;2023-01-31T00:56:54;93854.94;;;-0.10;90.67
6150;BME280;3106;42.670;23.318;2023-01-31T00:59:21;93906.00;;;0.29;91.11
6150;BME280;3106;42.670;23.318;2023-01-31T01:01:49;93861.09;;;0.12;90.99
6150;BME280;3106;42.670;23.318;2023-01-31T01:04:15;93842.78;;;-0.06;90.25
6150;BME280;3106;42.670;23.318;2023-01-31T01:06:45;93914.88;;;0.47;90.77
6150;BME280;3106;42.670;23.318;2023-01-31T01:09:32;93945.72;;;0.55;90.44
6150;BME280;3106;42.670;23.318;2023-01-31T01:12:11;93882.50;;;0.06;90.08
6150;BME280;3106;42.670;23.318;2023-01-31T01:14:37;93922.22;;;0.18;90.60
6150;BME280;3106;42.670;23.318;2023-01-31T01:17:06;93934.88;;;0.16;90.53
6150;BME280;3106;42.670;23.318;2023-01-31T01:19:32;93908.50;;;0.21;84.81
6150;BME280;3106;42.670;23.318;2023-01-31T01:22:01;93925.47;;;0.28;88.56
6150;BME280;3106;42.670;23.318;2023-01-31T01:24:29;93932.28;;;0.43;89.05
6150;BME280;3106;42.670;23.318;2023-01-31T01:26:55;93924.38;;;0.29;89.88
6150;BME280;3106;42.670;23.318;2023-01-31T01:29:23;93894.66;;;0.15;88.36
6150;BME280;3106;42.670;23.318;2023-01-31T01:31:49;93900.31;;;0.36;86.56
6150;BME280;3106;42.670;23.318;2023-01-31T01:34:18;93919.53;;;0.63;83.66
6150;BME280;3106;42.670;23.318;2023-01-31T01:36:44;93911.44;;;0.73;80.58
6150;BME280;3106;42.670;23.318;2023-01-31T01:39:11;93870.66;;;0.62;78.75
6150;BME280;3106;42.670;23.318;2023-01-31T01:41:38;93912.38;;;1.04;77.38
6150;BME280;3106;42.670;23.318;2023-01-31T01:47:11;93914.53;;;1.38;71.00
6150;BME280;3106;42.670;23.318;2023-01-31T01:49:41;93882.63;;;1.17;70.54
6150;BME280;3106;42.670;23.318;2023-01-31T01:52:10;93927.56;;;1.56;68.99
6150;BME280;3106;42.670;23.318;2023-01-31T01:54:43;93867.09;;;1.29;67.53
6150;BME280;3106;42.670;23.318;2023-01-31T01:57:16;93875.84;;;1.38;67.58
6150;BME280;3106;42.670;23.318;2023-01-31T01:59:46;93924.59;;;1.71;68.05
6150;BME280;3106;42.670;23.318;2023-01-31T02:02:14;93916.50;;;1.67;68.17
6150;BME280;3106;42.670;23.318;2023-01-31T02:04:44;93906.31;;;1.74;68.55
6150;BME280;3106;42.670;23.318;2023-01-31T02:07:14;93843.88;;;1.31;68.15
6150;BME280;3106;42.670;23.318;2023-01-31T02:09:45;93891.03;;;1.63;67.47
6150;BME280;3106;42.670;23.318;2023-01-31T02:12:14;93893.09;;;1.66;66.85
6150;BME280;3106;42.670;23.318;2023-01-31T02:14:41;93910.88;;;1.60;65.34
6150;BME280;3106;42.670;23.318;2023-01-31T02:17:11;93896.13;;;1.59;65.56
6150;BME280;3106;42.670;23.318;2023-01-31T02:19:50;93908.09;;;1.65;64.99
6150;BME280;3106;42.670;23.318;2023-01-31T02:22:26;93935.41;;;1.69;66.29
6150;BME280;3106;42.670;23.318;2023-01-31T02:25:33;93928.59;;;1.68;66.21
6150;BME280;3106;42.670;23.318;2023-01-31T02:28:40;93888.31;;;1.33;67.60
6150;BME280;3106;42.670;23.318;2023-01-31T02:31:35;93933.91;;;1.55;66.52
6150;BME280;3106;42.670;23.318;2023-01-31T02:34:11;93933.13;;;1.54;66.15
6150;BME280;3106;42.670;23.318;2023-01-31T02:36:50;93883.47;;;1.26;66.35
6150;BME280;3106;42.670;23.318;2023-01-31T02:39:27;93934.38;;;1.57;67.18
6150;BME280;3106;42.670;23.318;2023-01-31T02:42:03;93933.41;;;1.53;66.92
6150;BME280;3106;42.670;23.318;2023-01-31T02:44:37;93911.91;;;1.38;67.10
6150;BME280;3106;42.670;23.318;2023-01-31T02:47:40;93900.13;;;1.35;67.53
6150;BME280;3106;42.670;23.318;2023-01-31T02:50:13;93855.94;;;1.10;68.42
6150;BME280;3106;42.670;23.318;2023-01-31T02:52:47;93929.09;;;1.57;69.50
6150;BME280;3106;42.670;23.318;2023-01-31T02:55:18;93901.31;;;1.29;70.65
6150;BME280;3106;42.670;23.318;2023-01-31T02:58:07;93956.34;;;1.52;70.90
6150;BME280;3106;42.670;23.318;2023-01-31T03:00:37;93952.09;;;1.43;71.48
6150;BME280;3106;42.670;23.318;2023-01-31T03:03:07;93942.38;;;1.30;71.70
6150;BME280;3106;42.670;23.318;2023-01-31T03:05:39;93941.69;;;1.25;72.37
6150;BME280;3106;42.670;23.318;2023-01-31T03:08:09;93959.78;;;1.40;72.00
6150;BME280;3106;42.670;23.318;2023-01-31T03:10:52;93984.16;;;1.45;72.71
6150;BME280;3106;42.670;23.318;2023-01-31T03:13:32;93963.44;;;1.30;73.79
6150;BME280;3106;42.670;23.318;2023-01-31T03:16:16;93989.81;;;1.39;75.17
6150;BME280;3106;42.670;23.318;2023-01-31T03:19:06;93972.00;;;1.22;75.56
6150;BME280;3106;42.670;23.318;2023-01-31T03:21:43;93987.69;;;1.27;75.51
6150;BME280;3106;42.670;23.318;2023-01-31T03:24:12;93938.31;;;0.97;76.15
6150;BME280;3106;42.670;23.318;2023-01-31T03:26:40;93965.19;;;1.08;77.21
6150;BME280;3106;42.670;23.318;2023-01-31T03:29:09;93980.13;;;1.12;77.68
6150;BME280;3106;42.670;23.318;2023-01-31T03:31:41;94002.25;;;1.25;78.77
6150;BME280;3106;42.670;23.318;2023-01-31T03:34:11;93972.44;;;1.02;79.59
6150;BME280;3106;42.670;23.318;2023-01-31T03:36:46;93992.59;;;1.07;80.25
6150;BME280;3106;42.670;23.318;2023-01-31T03:39:22;94010.91;;;1.25;81.15
6150;BME280;3106;42.670;23.318;2023-01-31T03:41:56;93966.09;;;0.90;81.75
6150;BME280;3106;42.670;23.318;2023-01-31T03:44:32;93994.06;;;0.99;83.05
6150;BME280;3106;42.670;23.318;2023-01-31T03:47:05;94005.19;;;0.96;83.79
6150;BME280;3106;42.670;23.318;2023-01-31T03:49:36;93952.19;;;0.62;84.31
6150;BME280;3106;42.670;23.318;2023-01-31T03:52:08;93990.75;;;0.80;84.65
6150;BME280;3106;42.670;23.318;2023-01-31T03:54:40;94012.38;;;0.91;85.78
6150;BME280;3106;42.670;23.318;2023-01-31T03:57:13;93988.78;;;0.72;86.12
6150;BME280;3106;42.670;23.318;2023-01-31T03:59:43;94031.41;;;1.01;86.46
6150;BME280;3106;42.670;23.318;2023-01-31T04:02:14;93992.19;;;0.73;87.25
6150;BME280;3106;42.670;23.318;2023-01-31T04:04:46;94033.53;;;0.99;88.56
6150;BME280;3106;42.670;23.318;2023-01-31T04:07:16;93979.44;;;0.66;88.50
6150;BME280;3106;42.670;23.318;2023-01-31T04:09:43;93997.28;;;0.83;88.67
6150;BME280;3106;42.670;23.318;2023-01-31T04:12:12;93988.00;;;0.72;89.31
6150;BME280;3106;42.670;23.318;2023-01-31T04:14:39;94003.59;;;0.68;90.09
6150;BME280;3106;42.670;23.318;2023-01-31T04:17:06;94032.75;;;0.85;90.47
6150;BME280;3106;42.670;23.318;2023-01-31T04:19:32;94024.19;;;0.80;90.49
6150;BME280;3106;42.670;23.318;2023-01-31T04:21:59;94001.47;;;0.70;91.22
6150;BME280;3106;42.670;23.318;2023-01-31T04:24:28;94026.88;;;0.88;91.09
6150;BME280;3106;42.670;23.318;2023-01-31T04:26:54;94020.47;;;0.67;91.61
6150;BME280;3106;42.670;23.318;2023-01-31T04:29:21;94053.91;;;0.94;91.86
6150;BME280;3106;42.670;23.318;2023-01-31T04:31:48;94038.28;;;0.70;93.12
6150;BME280;3106;42.670;23.318;2023-01-31T04:34:15;94067.25;;;0.84;93.03
6150;BME280;3106;42.670;23.318;2023-01-31T04:36:41;94062.25;;;0.82;93.79
6150;BME280;3106;42.670;23.318;2023-01-31T04:39:09;94013.78;;;0.43;94.19
6150;BME280;3106;42.670;23.318;2023-01-31T04:41:37;94070.81;;;0.74;94.81
6150;BME280;3106;42.670;23.318;2023-01-31T04:44:04;94007.63;;;0.34;94.90
6150;BME280;3106;42.670;23.318;2023-01-31T04:46:31;94017.84;;;0.35;95.44
6150;BME280;3106;42.670;23.318;2023-01-31T04:48:58;94079.31;;;0.71;95.77
6150;BME280;3106;42.670;23.318;2023-01-31T04:51:24;94057.91;;;0.46;96.37
6150;BME280;3106;42.670;23.318;2023-01-31T04:53:51;94074.59;;;0.55;96.03
6150;BME280;3106;42.670;23.318;2023-01-31T04:56:18;94042.91;;;0.46;96.53
6150;BME280;3106;42.670;23.318;2023-01-31T04:58:46;94076.06;;;0.61;96.70
6150;BME280;3106;42.670;23.318;2023-01-31T05:01:13;94021.06;;;0.32;96.63
6150;BME280;3106;42.670;23.318;2023-01-31T05:03:40;94046.09;;;0.43;97.23
6150;BME280;3106;42.670;23.318;2023-01-31T05:06:07;94077.03;;;0.65;97.21
6150;BME280;3106;42.670;23.318;2023-01-31T05:08:34;94061.53;;;0.50;96.92
6150;BME280;3106;42.670;23.318;2023-01-31T05:11:02;94054.41;;;0.50;97.11
6150;BME280;3106;42.670;23.318;2023-01-31T05:13:51;94084.84;;;0.70;96.41
6150;BME280;3106;42.670;23.318;2023-01-31T05:16:22;94081.84;;;0.76;96.74
6150;BME280;3106;42.670;23.318;2023-01-31T05:18:49;94025.56;;;0.45;96.54
6150;BME280;3106;42.670;23.318;2023-01-31T05:21:15;94037.28;;;0.53;96.47
6150;BME280;3106;42.670;23.318;2023-01-31T05:23:42;94039.09;;;0.52;96.05
6150;BME280;3106;42.670;23.318;2023-01-31T05:26:09;94025.78;;;0.49;96.67
6150;BME280;3106;42.670;23.318;2023-01-31T05:28:36;94055.22;;;0.64;95.99
6150;BME280;3106;42.670;23.318;2023-01-31T05:31:06;94072.13;;;0.77;95.86
6150;BME280;3106;42.670;23.318;2023-01-31T05:33:33;94062.44;;;0.72;95.50
6150;BME280;3106;42.670;23.318;2023-01-31T05:36:00;94089.50;;;0.91;95.38
6150;BME280;3106;42.670;23.318;2023-01-31T05:38:27;94007.84;;;0.37;94.95
6150;BME280;3106;42.670;23.318;2023-01-31T05:40:55;94060.66;;;0.68;95.05
6150;BME280;3106;42.670;23.318;2023-01-31T05:43:21;94069.75;;;0.75;95.18
6150;BME280;3106;42.670;23.318;2023-01-31T05:45:48;94054.28;;;0.74;94.84
6150;BME280;3106;42.670;23.318;2023-01-31T05:48:16;94013.66;;;0.34;94.76
6150;BME280;3106;42.670;23.318;2023-01-31T05:50:43;94053.19;;;0.61;95.67
6150;BME280;3106;42.670;23.318;2023-01-31T05:53:10;94066.63;;;0.73;94.69
6150;BME280;3106;42.670;23.318;2023-01-31T05:55:37;94085.34;;;0.85;94.78
6150;BME280;3106;42.670;23.318;2023-01-31T05:58:04;94059.31;;;0.70;95.15
6150;BME280;3106;42.670;23.318;2023-01-31T06:00:30;94088.78;;;0.86;95.38
6150;BME280;3106;42.670;23.318;2023-01-31T06:02:57;94117.16;;;1.02;95.45
6150;BME280;3106;42.670;23.318;2023-01-31T06:05:26;94091.22;;;0.96;94.92
6150;BME280;3106;42.670;23.318;2023-01-31T06:07:53;94093.84;;;0.96;94.76
6150;BME280;3106;42.670;23.318;2023-01-31T06:10:19;94126.34;;;1.18;95.00
6150;BME280;3106;42.670;23.318;2023-01-31T06:12:47;94119.03;;;1.15;94.75
6150;BME280;3106;42.670;23.318;2023-01-31T06:15:14;94079.94;;;0.95;94.03
6150;BME280;3106;42.670;23.318;2023-01-31T06:17:41;94102.16;;;1.16;94.06
6150;BME280;3106;42.670;23.318;2023-01-31T06:20:08;94104.69;;;1.21;94.32
6150;BME280;3106;42.670;23.318;2023-01-31T06:22:40;94075.66;;;0.99;94.19
6150;BME280;3106;42.670;23.318;2023-01-31T06:25:07;94133.31;;;1.41;93.87
6150;BME280;3106;42.670;23.318;2023-01-31T06:27:34;94110.78;;;1.35;93.69
6150;BME280;3106;42.670;23.318;2023-01-31T06:30:02;94059.75;;;1.04;93.94
6150;BME280;3106;42.670;23.318;2023-01-31T06:32:28;94104.94;;;1.38;94.25
6150;BME280;3106;42.670;23.318;2023-01-31T06:34:55;94110.09;;;1.43;94.56
6150;BME280;3106;42.670;23.318;2023-01-31T06:37:22;94089.88;;;1.39;94.61
6150;BME280;3106;42.670;23.318;2023-01-31T06:39:50;94126.47;;;1.67;93.61
6150;BME280;3106;42.670;23.318;2023-01-31T06:42:17;94130.69;;;1.54;93.90
6150;BME280;3106;42.670;23.318;2023-01-31T06:44:44;94086.38;;;1.30;93.80
6150;BME280;3106;42.670;23.318;2023-01-31T06:47:11;94100.91;;;1.41;93.96
6150;BME280;3106;42.670;23.318;2023-01-31T06:49:39;94109.50;;;1.46;93.99
6150;BME280;3106;42.670;23.318;2023-01-31T06:52:06;94135.94;;;1.68;93.75
6150;BME280;3106;42.670;23.318;2023-01-31T06:54:32;94113.31;;;1.40;94.48
6150;BME280;3106;42.670;23.318;2023-01-31T06:57:01;94110.28;;;1.47;94.78
6150;BME280;3106;42.670;23.318;2023-01-31T06:59:27;94121.59;;;1.47;94.37
6150;BME280;3106;42.670;23.318;2023-01-31T07:01:54;94133.59;;;1.66;94.51
6150;BME280;3106;42.670;23.318;2023-01-31T07:04:21;94121.97;;;1.54;93.97
6150;BME280;3106;42.670;23.318;2023-01-31T07:06:48;94136.13;;;1.58;93.78
6150;BME280;3106;42.670;23.318;2023-01-31T07:09:15;94098.28;;;1.41;94.00
6150;BME280;3106;42.670;23.318;2023-01-31T07:11:42;94144.22;;;1.75;93.26
6150;BME280;3106;42.670;23.318;2023-01-31T07:14:10;94146.75;;;1.80;93.34
6150;BME280;3106;42.670;23.318;2023-01-31T07:16:37;94094.66;;;1.50;92.54
6150;BME280;3106;42.670;23.318;2023-01-31T07:19:05;94113.38;;;1.62;91.86
6150;BME280;3106;42.670;23.318;2023-01-31T07:21:32;94150.94;;;1.94;92.29
6150;BME280;3106;42.670;23.318;2023-01-31T07:24:00;94131.22;;;1.78;91.80
6150;BME280;3106;42.670;23.318;2023-01-31T07:26:29;94126.16;;;1.68;92.59
6150;BME280;3106;42.670;23.318;2023-01-31T07:28:56;94094.09;;;1.40;92.97
6150;BME280;3106;42.670;23.318;2023-01-31T07:31:24;94135.75;;;1.64;93.55
6150;BME280;3106;42.670;23.318;2023-01-31T07:33:51;94137.78;;;1.81;93.37
6150;BME280;3106;42.670;23.318;2023-01-31T07:36:18;94119.13;;;1.77;93.71
6150;BME280;3106;42.670;23.318;2023-01-31T07:38:52;94118.84;;;1.79;93.73
6150;BME280;3106;42.670;23.318;2023-01-31T07:41:19;94152.69;;;1.99;93.78
6150;BME280;3106;42.670;23.318;2023-01-31T07:43:46;94075.16;;;1.51;93.56
6150;BME280;3106;42.670;23.318;2023-01-31T07:46:13;94136.13;;;1.85;93.67
6150;BME280;3106;42.670;23.318;2023-01-31T07:48:42;94143.63;;;1.91;93.38
6150;BME280;3106;42.670;23.318;2023-01-31T07:51:09;94117.19;;;1.83;93.92
6150;BME280;3106;42.670;23.318;2023-01-31T07:53:38;94107.88;;;1.99;93.64
6150;BME280;3106;42.670;23.318;2023-01-31T07:56:11;94080.88;;;1.80;93.11
6150;BME280;3106;42.670;23.318;2023-01-31T07:58:40;94147.47;;;2.21;93.22
6150;BME280;3106;42.670;23.318;2023-01-31T08:01:12;94123.25;;;2.19;92.83
6150;BME280;3106;42.670;23.318;2023-01-31T08:03:58;94149.41;;;2.29;93.05
6150;BME280;3106;42.670;23.318;2023-01-31T08:06:26;94111.31;;;1.99;93.13
6150;BME280;3106;42.670;23.318;2023-01-31T08:08:55;94159.78;;;2.25;93.21
6150;BME280;3106;42.670;23.318;2023-01-31T08:11:22;94129.25;;;2.11;93.79
6150;BME280;3106;42.670;23.318;2023-01-31T08:13:49;94131.19;;;2.19;93.79
6150;BME280;3106;42.670;23.318;2023-01-31T08:16:16;94108.41;;;2.23;93.34
6150;BME280;3106;42.670;23.318;2023-01-31T08:18:43;94097.09;;;2.22;92.72
6150;BME280;3106;42.670;23.318;2023-01-31T08:21:12;94137.63;;;2.48;92.35
6150;BME280;3106;42.670;23.318;2023-01-31T08:23:39;94141.00;;;2.62;91.91
6150;BME280;3106;42.670;23.318;2023-01-31T08:26:07;94139.88;;;2.77;91.46
6150;BME280;3106;42.670;23.318;2023-01-31T08:28:35;94116.00;;;2.82;90.16
6150;BME280;3106;42.670;23.318;2023-01-31T08:31:03;94084.56;;;2.72;89.38
6150;BME280;3106;42.670;23.318;2023-01-31T08:33:30;94118.91;;;3.02;89.81
6150;BME280;3106;42.670;23.318;2023-01-31T08:35:57;94137.28;;;3.37;88.51
6150;BME280;3106;42.670;23.318;2023-01-31T08:38:34;94138.13;;;3.46;87.11
6150;BME280;3106;42.670;23.318;2023-01-31T08:41:01;94133.59;;;3.47;87.30
6150;BME280;3106;42.670;23.318;2023-01-31T08:43:27;94140.06;;;3.71;86.95
6150;BME280;3106;42.670;23.318;2023-01-31T08:45:55;94136.66;;;3.79;85.98
6150;BME280;3106;42.670;23.318;2023-01-31T08:48:22;94139.44;;;3.74;86.78
6150;BME280;3106;42.670;23.318;2023-01-31T08:50:49;94131.63;;;3.61;86.29
6150;BME280;3106;42.670;23.318;2023-01-31T08:53:15;94136.59;;;3.62;87.10
6150;BME280;3106;42.670;23.318;2023-01-31T08:55:44;94120.56;;;3.50;86.95
6150;BME280;3106;42.670;23.318;2023-01-31T08:58:11;94093.31;;;3.41;86.68
6150;BME280;3106;42.670;23.318;2023-01-31T09:00:37;94114.91;;;3.35;86.92
6150;BME280;3106;42.670;23.318;2023-01-31T09:03:04;94129.69;;;3.44;87.15
6150;BME280;3106;42.670;23.318;2023-01-31T09:05:31;94087.53;;;3.31;87.20
6150;BME280;3106;42.670;23.318;2023-01-31T09:07:58;94143.94;;;3.65;86.34
6150;BME280;3106;42.670;23.318;2023-01-31T09:10:25;94121.66;;;3.49;85.32
6150;BME280;3106;42.670;23.318;2023-01-31T09:12:53;94091.59;;;3.37;85.93
6150;BME280;3106;42.670;23.318;2023-01-31T09:15:20;94113.72;;;3.49;85.10
6150;BME280;3106;42.670;23.318;2023-01-31T09:17:57;94116.41;;;3.27;86.00
6150;BME280;3106;42.670;23.318;2023-01-31T09:20:24;94112.72;;;3.37;85.54
6150;BME280;3106;42.670;23.318;2023-01-31T09:22:51;94112.78;;;3.54;85.86
6150;BME280;3106;42.670;23.318;2023-01-31T09:25:17;94120.19;;;3.82;83.98
6150;BME280;3106;42.670;23.318;2023-01-31T09:27:44;94102.16;;;3.76;83.10
6150;BME280;3106;42.670;23.318;2023-01-31T09:30:13;94133.63;;;4.03;82.55
6150;BME280;3106;42.670;23.318;2023-01-31T09:32:41;94086.34;;;3.54;82.71
6150;BME280;3106;42.670;23.318;2023-01-31T09:35:08;94087.78;;;3.51;83.64
6150;BME280;3106;42.670;23.318;2023-01-31T09:37:35;94124.47;;;4.09;83.49
6150;BME280;3106;42.670;23.318;2023-01-31T09:40:03;94100.97;;;4.07;82.19
6150;BME280;3106;42.670;23.318;2023-01-31T09:42:33;94128.47;;;3.98;83.12
6150;BME280;3106;42.670;23.318;2023-01-31T09:45:04;94114.06;;;4.29;82.90
6150;BME280;3106;42.670;23.318;2023-01-31T09:47:36;94092.72;;;4.26;81.84
6150;BME280;3106;42.670;23.318;2023-01-31T09:50:26;94027.19;;;3.89;81.67
6150;BME280;3106;42.670;23.318;2023-01-31T09:52:57;94057.09;;;4.32;80.75
6150;BME280;3106;42.670;23.318;2023-01-31T09:55:30;94031.41;;;4.15;80.31
6150;BME280;3106;42.670;23.318;2023-01-31T09:58:08;94074.69;;;4.44;80.39
6150;BME280;3106;42.670;23.318;2023-01-31T10:00:45;94080.28;;;4.35;79.92
6150;BME280;3106;42.670;23.318;2023-01-31T10:03:44;94103.00;;;4.86;79.16
6150;BME280;3106;42.670;23.318;2023-01-31T10:06:18;94072.47;;;4.72;78.97
6150;BME280;3106;42.670;23.318;2023-01-31T10:08:52;94073.13;;;4.52;79.79
6150;BME280;3106;42.670;23.318;2023-01-31T10:11:28;94073.44;;;4.50;81.04
6150;BME280;3106;42.670;23.318;2023-01-31T10:14:00;94087.56;;;4.88;79.43
6150;BME280;3106;42.670;23.318;2023-01-31T10:16:34;94035.13;;;4.48;78.90
6150;BME280;3106;42.670;23.318;2023-01-31T10:19:08;94005.88;;;4.44;78.52
6150;BME280;3106;42.670;23.318;2023-01-31T10:21:40;94106.88;;;4.97;77.62
6150;BME280;3106;42.670;23.318;2023-01-31T10:24:13;94094.41;;;4.98;77.23
6150;BME280;3106;42.670;23.318;2023-01-31T10:26:43;94073.41;;;4.84;76.90
6150;BME280;3106;42.670;23.318;2023-01-31T10:29:15;94035.28;;;4.43;77.19
6150;BME280;3106;42.670;23.318;2023-01-31T10:31:48;94092.44;;;4.52;78.21
6150;BME280;3106;42.670;23.318;2023-01-31T10:34:21;94031.09;;;3.91;78.88
6150;BME280;3106;42.670;23.318;2023-01-31T10:36:51;94068.72;;;3.97;79.32
6150;BME280;3106;42.670;23.318;2023-01-31T10:39:22;94016.53;;;3.38;82.31
6150;BME280;3106;42.670;23.318;2023-01-31T10:42:05;94062.00;;;3.65;82.09
6150;BME280;3106;42.670;23.318;2023-01-31T10:44:50;94020.88;;;3.42;82.39
6150;BME280;3106;42.670;23.318;2023-01-31T10:47:20;94086.91;;;3.81;82.15
6150;BME280;3106;42.670;23.318;2023-01-31T10:49:56;94068.22;;;3.69;82.32
6150;BME280;3106;42.670;23.318;2023-01-31T10:52:35;94089.41;;;3.78;83.06
6150;BME280;3106;42.670;23.318;2023-01-31T10:55:20;94046.19;;;3.26;84.26
6150;BME280;3106;42.670;23.318;2023-01-31T10:57:53;94094.19;;;3.67;85.33
6150;BME280;3106;42.670;23.318;2023-01-31T11:00:27;94085.94;;;3.60;84.82
6150;BME280;3106;42.670;23.318;2023-01-31T11:02:56;93990.63;;;3.01;83.82
6150;BME280;3106;42.670;23.318;2023-01-31T11:05:26;94098.06;;;3.61;85.03
6150;BME280;3106;42.670;23.318;2023-01-31T11:07:55;94040.69;;;3.14;85.51
6150;BME280;3106;42.670;23.318;2023-01-31T11:10:24;94041.19;;;3.16;85.14
6150;BME280;3106;42.670;23.318;2023-01-31T11:12:53;94078.78;;;3.22;86.42
6150;BME280;3106;42.670;23.318;2023-01-31T11:15:23;94025.34;;;2.86;86.96
6150;BME280;3106;42.670;23.318;2023-01-31T11:17:52;94066.75;;;3.07;87.29
6150;BME280;3106;42.670;23.318;2023-01-31T11:20:24;94095.28;;;3.27;87.49
6150;BME280;3106;42.670;23.318;2023-01-31T11:22:53;94045.41;;;2.95;88.30
6150;BME280;3106;42.670;23.318;2023-01-31T11:25:22;94033.72;;;2.88;88.79
6150;BME280;3106;42.670;23.318;2023-01-31T11:27:53;94058.34;;;2.97;88.46
6150;BME280;3106;42.670;23.318;2023-01-31T11:30:23;94077.16;;;3.04;88.59
6150;BME280;3106;42.670;23.318;2023-01-31T11:32:51;94073.59;;;3.08;88.41
6150;BME280;3106;42.670;23.318;2023-01-31T11:35:26;94018.22;;;2.87;88.75
6150;BME280;3106;42.670;23.318;2023-01-31T11:37:55;94048.25;;;3.07;89.01
6150;BME280;3106;42.670;23.318;2023-01-31T11:40:27;94069.84;;;3.01;90.00
6150;BME280;3106;42.670;23.318;2023-01-31T11:42:56;94051.66;;;2.99;89.88
6150;BME280;3106;42.670;23.318;2023-01-31T11:45:25;94084.25;;;3.25;89.95
6150;BME280;3106;42.670;23.318;2023-01-31T11:47:54;94047.09;;;2.92;89.58
6150;BME280;3106;42.670;23.318;2023-01-31T11:50:33;94041.69;;;2.66;91.00
6150;BME280;3106;42.670;23.318;2023-01-31T11:53:03;94096.19;;;2.92;91.93
6150;BME280;3106;42.670;23.318;2023-01-31T11:55:39;94085.75;;;2.88;93.21
6150;BME280;3106;42.670;23.318;2023-01-31T11:58:16;94086.13;;;2.73;94.25
6150;BME280;3106;42.670;23.318;2023-01-31T12:00:52;94056.63;;;2.49;94.49
6150;BME280;3106;42.670;23.318;2023-01-31T12:03:19;94075.66;;;2.59;95.03
6150;BME280;3106;42.670;23.318;2023-01-31T12:05:59;94089.75;;;2.77;94.08
6150;BME280;3106;42.670;23.318;2023-01-31T12:08:28;94052.44;;;2.48;94.07
6150;BME280;3106;42.670;23.318;2023-01-31T12:10:55;94085.41;;;2.59;94.69
6150;BME280;3106;42.670;23.318;2023-01-31T12:13:23;94011.56;;;2.15;95.01
6150;BME280;3106;42.670;23.318;2023-01-31T12:15:52;94051.00;;;2.42;94.50
6150;BME280;3106;42.670;23.318;2023-01-31T12:18:44;94088.59;;;2.69;94.23
6150;BME280;3106;42.670;23.318;2023-01-31T12:21:33;94088.88;;;2.68;93.13
6150;BME280;3106;42.670;23.318;2023-01-31T12:24:08;94085.06;;;2.74;93.59
6150;BME280;3106;42.670;23.318;2023-01-31T12:26:44;94028.69;;;2.48;93.33
6150;BME280;3106;42.670;23.318;2023-01-31T12:29:21;94081.63;;;2.73;93.11
6150;BME280;3106;42.670;23.318;2023-01-31T12:32:05;94042.78;;;2.65;92.80
6150;BME280;3106;42.670;23.318;2023-01-31T12:34:54;94080.75;;;2.78;91.87
6150;BME280;3106;42.670;23.318;2023-01-31T12:37:36;94029.84;;;2.55;92.41
6150;BME280;3106;42.670;23.318;2023-01-31T12:40:21;94056.97;;;2.78;91.35
6150;BME280;3106;42.670;23.318;2023-01-31T12:42:55;94089.53;;;2.95;91.21
6150;BME280;3106;42.670;23.318;2023-01-31T12:45:37;94042.66;;;2.70;90.63
6150;BME280;3106;42.670;23.318;2023-01-31T12:48:46;94090.81;;;3.06;91.20
6150;BME280;3106;42.670;23.318;2023-01-31T12:51:36;94047.31;;;2.73;90.79
6150;BME280;3106;42.670;23.318;2023-01-31T12:54:24;94087.41;;;3.05;91.14
6150;BME280;3106;42.670;23.318;2023-01-31T12:57:00;94072.25;;;2.89;91.20
6150;BME280;3106;42.670;23.318;2023-01-31T12:59:40;94070.19;;;2.78;91.82
6150;BME280;3106;42.670;23.318;2023-01-31T13:02:19;94101.53;;;2.79;92.23
6150;BME280;3106;42.670;23.318;2023-01-31T13:04:51;94079.28;;;2.72;92.50
6150;BME280;3106;42.670;23.318;2023-01-31T13:07:24;94068.44;;;2.51;92.10
6150;BME280;3106;42.670;23.318;2023-01-31T13:09:57;94099.63;;;2.71;91.91
6150;BME280;3106;42.670;23.318;2023-01-31T13:12:29;94073.84;;;2.46;92.19
6150;BME280;3106;42.670;23.318;2023-01-31T13:15:01;94035.19;;;2.20;92.01
6150;BME280;3106;42.670;23.318;2023-01-31T13:17:31;94024.63;;;2.20;91.82
6150;BME280;3106;42.670;23.318;2023-01-31T13:20:02;94076.78;;;2.45;91.71
6150;BME280;3106;42.670;23.318;2023-01-31T13:22:46;94091.00;;;2.57;92.25
6150;BME280;3106;42.670;23.318;2023-01-31T13:25:19;94053.75;;;2.37;92.22
6150;BME280;3106;42.670;23.318;2023-01-31T13:27:53;94109.38;;;2.71;92.23
6150;BME280;3106;42.670;23.318;2023-01-31T13:30:30;94012.66;;;2.14;91.77
6150;BME280;3106;42.670;23.318;2023-01-31T13:32:59;94085.19;;;2.47;91.79
6150;BME280;3106;42.670;23.318;2023-01-31T13:35:32;94088.38;;;2.57;91.94
6150;BME280;3106;42.670;23.318;2023-01-31T13:38:05;94075.88;;;2.49;92.15
6150;BME280;3106;42.670;23.318;2023-01-31T13:40:40;94081.34;;;2.53;92.44
6150;BME280;3106;42.670;23.318;2023-01-31T13:43:13;94060.69;;;2.33;93.09
6150;BME280;3106;42.670;23.318;2023-01-31T13:45:43;94073.25;;;2.27;92.92